sensor_id;sensor_type;location;lat;lon;timestamp;pressure;altitude;pressure_sealevel;temperature
20058;BMP180;10189;49.546;7.906;2023-06-14T00:00:52;97768.00;;;16.70
20058;BMP180;10189;49.546;7.906;2023-06-14T00:03:18;97775.00;;;16.70
20058;BMP180;10189;49.546;7.906;2023-06-14T00:05:48;97770.00;;;16.80
20058;BMP180;10189;49.546;7.906;2023-06-14T00:08:15;97769.00;;;16.80
20058;BMP180;10189;49.546;7.906;2023-06-14T00:10:41;97765.00;;;16.90
20058;BMP180;10189;49.546;7.906;2023-06-14T00:13:10;97767.00;;;17.00
20058;BMP180;10189;49.546;7.906;2023-06-14T00:15:36;97761.00;;;16.90
20058;BMP180;10189;49.546;7.906;2023-06-14T00:18:04;97766.00;;;16.90
20058;BMP180;10189;49.546;7.906;2023-06-14T00:20:32;97767.00;;;16.90
20058;BMP180;10189;49.546;7.906;2023-06-14T00:23:00;97769.00;;;16.80
20058;BMP180;10189;49.546;7.906;2023-06-14T00:25:26;97769.00;;;16.90
20058;BMP180;10189;49.546;7.906;2023-06-14T00:27:57;97765.00;;;16.80
20058;BMP180;10189;49.546;7.906;2023-06-14T00:30:24;97755.00;;;16.70
20058;BMP180;10189;49.546;7.906;2023-06-14T00:32:50;97754.00;;;16.60
20058;BMP180;10189;49.546;7.906;2023-06-14T00:35:17;97758.00;;;16.50
20058;BMP180;10189;49.546;7.906;2023-06-14T00:37:43;97752.00;;;16.50
20058;BMP180;10189;49.546;7.906;2023-06-14T00:40:09;97751.00;;;16.50
20058;BMP180;10189;49.546;7.906;2023-06-14T00:42:35;97753.00;;;16.50
20058;BMP180;10189;49.546;7.906;2023-06-14T00:45:01;97755.00;;;16.50
20058;BMP180;10189;49.546;7.906;2023-06-14T00:47:27;97757.00;;;16.90
20058;BMP180;10189;49.546;7.906;2023-06-14T00:49:56;97746.00;;;16.90
20058;BMP180;10189;49.546;7.906;2023-06-14T00:52:23;97743.00;;;17.30
20058;BMP180;10189;49.546;7.906;2023-06-14T00:54:50;97748.00;;;17.20
20058;BMP180;10189;49.546;7.906;2023-06-14T00:57:16;97753.00;;;17.30
20058;BMP180;10189;49.546;7.906;2023-06-14T00:59:47;97754.00;;;17.20
20058;BMP180;10189;49.546;7.906;2023-06-14T01:02:14;97762.00;;;17.20
20058;BMP180;10189;49.546;7.906;2023-06-14T01:04:51;97765.00;;;17.20
20058;BMP180;10189;49.546;7.906;2023-06-14T01:07:41;97767.00;;;17.20
20058;BMP180;10189;49.546;7.906;2023-06-14T01:13:20;97774.00;;;17.10
20058;BMP180;10189;49.546;7.906;2023-06-14T01:15:47;97756.00;;;17.30
20058;BMP180;10189;49.546;7.906;2023-06-14T01:18:13;97773.00;;;17.30
20058;BMP180;10189;49.546;7.906;2023-06-14T01:20:47;97766.00;;;17.20
20058;BMP180;10189;49.546;7.906;2023-06-14T01:23:18;97767.00;;;17.10
20058;BMP180;10189;49.546;7.906;2023-06-14T01:25:45;97766.00;;;17.30
20058;BMP180;10189;49.546;7.906;2023-06-14T01:28:15;97755.00;;;17.30
20058;BMP180;10189;49.546;7.906;2023-06-14T01:30:45;97771.00;;;17.50
20058;BMP180;10189;49.546;7.906;2023-06-14T01:33:22;97769.00;;;17.50
20058;BMP180;10189;49.546;7.906;2023-06-14T01:35:51;97766.00;;;17.60
20058;BMP180;10189;49.546;7.906;2023-06-14T01:38:21;97761.00;;;17.60
20058;BMP180;10189;49.546;7.906;2023-06-14T01:40:49;97772.00;;;17.70
20058;BMP180;10189;49.546;7.906;2023-06-14T01:43:19;97767.00;;;17.70
20058;BMP180;10189;49.546;7.906;2023-06-14T01:45:48;97770.00;;;18.00
20058;BMP180;10189;49.546;7.906;2023-06-14T01:48:15;97770.00;;;18.00
20058;BMP180;10189;49.546;7.906;2023-06-14T01:50:41;97762.00;;;18.10
20058;BMP180;10189;49.546;7.906;2023-06-14T01:53:08;97762.00;;;18.10
20058;BMP180;10189;49.546;7.906;2023-06-14T01:55:37;97766.00;;;18.10
20058;BMP180;10189;49.546;7.906;2023-06-14T01:58:06;97773.00;;;18.00
20058;BMP180;10189;49.546;7.906;2023-06-14T02:00:32;97767.00;;;18.00
20058;BMP180;10189;49.546;7.906;2023-06-14T02:02:58;97776.00;;;18.20
20058;BMP180;10189;49.546;7.906;2023-06-14T02:05:26;97777.00;;;18.10
20058;BMP180;10189;49.546;7.906;2023-06-14T02:07:52;97777.00;;;18.20
20058;BMP180;10189;49.546;7.906;2023-06-14T02:10:19;97783.00;;;18.20
20058;BMP180;10189;49.546;7.906;2023-06-14T02:12:46;97780.00;;;18.10
20058;BMP180;10189;49.546;7.906;2023-06-14T02:15:12;97775.00;;;18.10
20058;BMP180;10189;49.546;7.906;2023-06-14T02:17:49;97775.00;;;18.10
20058;BMP180;10189;49.546;7.906;2023-06-14T02:20:17;97771.00;;;18.10
20058;BMP180;10189;49.546;7.906;2023-06-14T02:22:44;97775.00;;;18.10
20058;BMP180;10189;49.546;7.906;2023-06-14T02:25:10;97783.00;;;18.10
20058;BMP180;10189;49.546;7.906;2023-06-14T02:27:36;97768.00;;;18.10
20058;BMP180;10189;49.546;7.906;2023-06-14T02:30:04;97775.00;;;18.00
20058;BMP180;10189;49.546;7.906;2023-06-14T02:32:32;97757.00;;;17.90
20058;BMP180;10189;49.546;7.906;2023-06-14T02:34:59;97770.00;;;17.90
20058;BMP180;10189;49.546;7.906;2023-06-14T02:37:25;97775.00;;;17.80
20058;BMP180;10189;49.546;7.906;2023-06-14T02:39:52;97760.00;;;17.90
20058;BMP180;10189;49.546;7.906;2023-06-14T02:42:18;97769.00;;;17.90
20058;BMP180;10189;49.546;7.906;2023-06-14T02:44:44;97773.00;;;17.90
20058;BMP180;10189;49.546;7.906;2023-06-14T02:47:12;97778.00;;;18.00
20058;BMP180;10189;49.546;7.906;2023-06-14T02:49:38;97768.00;;;18.00
20058;BMP180;10189;49.546;7.906;2023-06-14T02:52:04;97779.00;;;17.90
20058;BMP180;10189;49.546;7.906;2023-06-14T02:54:30;97775.00;;;17.90
20058;BMP180;10189;49.546;7.906;2023-06-14T02:56:58;97766.00;;;17.90
20058;BMP180;10189;49.546;7.906;2023-06-14T02:59:24;97778.00;;;17.90
20058;BMP180;10189;49.546;7.906;2023-06-14T03:01:52;97776.00;;;17.90
20058;BMP180;10189;49.546;7.906;2023-06-14T03:04:18;97773.00;;;17.80
20058;BMP180;10189;49.546;7.906;2023-06-14T03:06:45;97778.00;;;17.90
20058;BMP180;10189;49.546;7.906;2023-06-14T03:09:16;97779.00;;;17.80
20058;BMP180;10189;49.546;7.906;2023-06-14T03:11:42;97774.00;;;17.80
20058;BMP180;10189;49.546;7.906;2023-06-14T03:14:10;97783.00;;;17.80
20058;BMP180;10189;49.546;7.906;2023-06-14T03:16:37;97786.00;;;17.70
20058;BMP180;10189;49.546;7.906;2023-06-14T03:19:03;97779.00;;;17.80
20058;BMP180;10189;49.546;7.906;2023-06-14T03:21:31;97790.00;;;17.70
20058;BMP180;10189;49.546;7.906;2023-06-14T03:24:00;97783.00;;;17.70
20058;BMP180;10189;49.546;7.906;2023-06-14T03:26:27;97787.00;;;17.80
20058;BMP180;10189;49.546;7.906;2023-06-14T03:28:55;97781.00;;;17.90
20058;BMP180;10189;49.546;7.906;2023-06-14T03:31:22;97786.00;;;17.90
20058;BMP180;10189;49.546;7.906;2023-06-14T03:33:50;97794.00;;;17.80
20058;BMP180;10189;49.546;7.906;2023-06-14T03:36:16;97794.00;;;17.80
20058;BMP180;10189;49.546;7.906;2023-06-14T03:38:43;97785.00;;;17.80
20058;BMP180;10189;49.546;7.906;2023-06-14T03:41:10;97795.00;;;17.80
20058;BMP180;10189;49.546;7.906;2023-06-14T03:43:37;97804.00;;;17.80
20058;BMP180;10189;49.546;7.906;2023-06-14T03:46:03;97799.00;;;17.80
20058;BMP180;10189;49.546;7.906;2023-06-14T03:48:31;97801.00;;;17.70
20058;BMP180;10189;49.546;7.906;2023-06-14T03:50:57;97811.00;;;17.70
20058;BMP180;10189;49.546;7.906;2023-06-14T03:53:23;97800.00;;;17.70
20058;BMP180;10189;49.546;7.906;2023-06-14T03:55:51;97806.00;;;17.60
20058;BMP180;10189;49.546;7.906;2023-06-14T03:58:21;97807.00;;;17.60
20058;BMP180;10189;49.546;7.906;2023-06-14T04:00:47;97808.00;;;17.80
20058;BMP180;10189;49.546;7.906;2023-06-14T04:03:13;97813.00;;;17.70
20058;BMP180;10189;49.546;7.906;2023-06-14T04:05:41;97810.00;;;17.70
20058;BMP180;10189;49.546;7.906;2023-06-14T04:08:08;97812.00;;;17.80
20058;BMP180;10189;49.546;7.906;2023-06-14T04:10:36;97819.00;;;17.80
20058;BMP180;10189;49.546;7.906;2023-06-14T04:13:02;97824.00;;;17.70
20058;BMP180;10189;49.546;7.906;2023-06-14T04:15:28;97828.00;;;17.70
20058;BMP180;10189;49.546;7.906;2023-06-14T04:17:55;97830.00;;;17.70
20058;BMP180;10189;49.546;7.906;2023-06-14T04:20:23;97832.00;;;17.70
20058;BMP180;10189;49.546;7.906;2023-06-14T04:22:52;97830.00;;;17.80
20058;BMP180;10189;49.546;7.906;2023-06-14T04:25:20;97828.00;;;17.80
20058;BMP180;10189;49.546;7.906;2023-06-14T04:27:46;97834.00;;;17.90
20058;BMP180;10189;49.546;7.906;2023-06-14T04:30:13;97833.00;;;18.00
20058;BMP180;10189;49.546;7.906;2023-06-14T04:32:47;97835.00;;;18.00
20058;BMP180;10189;49.546;7.906;2023-06-14T04:35:15;97832.00;;;18.20
20058;BMP180;10189;49.546;7.906;2023-06-14T04:37:43;97833.00;;;18.10
20058;BMP180;10189;49.546;7.906;2023-06-14T04:40:12;97844.00;;;18.30
20058;BMP180;10189;49.546;7.906;2023-06-14T04:42:39;97835.00;;;18.30
20058;BMP180;10189;49.546;7.906;2023-06-14T04:45:08;97841.00;;;18.20
20058;BMP180;10189;49.546;7.906;2023-06-14T04:47:37;97845.00;;;18.30
20058;BMP180;10189;49.546;7.906;2023-06-14T04:50:05;97843.00;;;18.30
20058;BMP180;10189;49.546;7.906;2023-06-14T04:52:31;97848.00;;;18.30
20058;BMP180;10189;49.546;7.906;2023-06-14T04:54:58;97856.00;;;18.40
20058;BMP180;10189;49.546;7.906;2023-06-14T04:57:24;97856.00;;;18.40
20058;BMP180;10189;49.546;7.906;2023-06-14T04:59:53;97854.00;;;18.50
20058;BMP180;10189;49.546;7.906;2023-06-14T05:02:25;97848.00;;;18.70
20058;BMP180;10189;49.546;7.906;2023-06-14T05:04:52;97859.00;;;18.80
20058;BMP180;10189;49.546;7.906;2023-06-14T05:07:18;97855.00;;;18.70
20058;BMP180;10189;49.546;7.906;2023-06-14T05:09:46;97855.00;;;18.70
20058;BMP180;10189;49.546;7.906;2023-06-14T05:12:12;97861.00;;;18.70
20058;BMP180;10189;49.546;7.906;2023-06-14T05:14:38;97855.00;;;18.60
20058;BMP180;10189;49.546;7.906;2023-06-14T05:17:06;97854.00;;;18.70
20058;BMP180;10189;49.546;7.906;2023-06-14T05:19:32;97854.00;;;18.90
20058;BMP180;10189;49.546;7.906;2023-06-14T05:21:58;97855.00;;;18.80
20058;BMP180;10189;49.546;7.906;2023-06-14T05:24:24;97852.00;;;19.20
20058;BMP180;10189;49.546;7.906;2023-06-14T05:26:51;97859.00;;;19.30
20058;BMP180;10189;49.546;7.906;2023-06-14T05:29:17;97869.00;;;19.30
20058;BMP180;10189;49.546;7.906;2023-06-14T05:31:43;97863.00;;;19.20
20058;BMP180;10189;49.546;7.906;2023-06-14T05:34:09;97868.00;;;19.10
20058;BMP180;10189;49.546;7.906;2023-06-14T05:36:34;97864.00;;;19.30
20058;BMP180;10189;49.546;7.906;2023-06-14T05:39:02;97863.00;;;19.40
20058;BMP180;10189;49.546;7.906;2023-06-14T05:41:29;97872.00;;;19.40
20058;BMP180;10189;49.546;7.906;2023-06-14T05:43:56;97869.00;;;19.40
20058;BMP180;10189;49.546;7.906;2023-06-14T05:46:22;97866.00;;;19.50
20058;BMP180;10189;49.546;7.906;2023-06-14T05:48:54;97878.00;;;19.40
20058;BMP180;10189;49.546;7.906;2023-06-14T05:51:22;97880.00;;;19.30
20058;BMP180;10189;49.546;7.906;2023-06-14T05:53:50;97872.00;;;19.40
20058;BMP180;10189;49.546;7.906;2023-06-14T05:56:18;97876.00;;;19.60
20058;BMP180;10189;49.546;7.906;2023-06-14T05:58:45;97875.00;;;19.70
20058;BMP180;10189;49.546;7.906;2023-06-14T06:01:11;97886.00;;;19.90
20058;BMP180;10189;49.546;7.906;2023-06-14T06:03:39;97884.00;;;19.70
20058;BMP180;10189;49.546;7.906;2023-06-14T06:06:05;97880.00;;;19.70
20058;BMP180;10189;49.546;7.906;2023-06-14T06:08:31;97885.00;;;19.90
20058;BMP180;10189;49.546;7.906;2023-06-14T06:10:58;97887.00;;;20.00
20058;BMP180;10189;49.546;7.906;2023-06-14T06:13:24;97886.00;;;20.00
20058;BMP180;10189;49.546;7.906;2023-06-14T06:15:49;97880.00;;;20.10
20058;BMP180;10189;49.546;7.906;2023-06-14T06:18:16;97877.00;;;20.20
20058;BMP180;10189;49.546;7.906;2023-06-14T06:20:42;97876.00;;;20.20
20058;BMP180;10189;49.546;7.906;2023-06-14T06:23:07;97889.00;;;20.00
20058;BMP180;10189;49.546;7.906;2023-06-14T06:25:35;97881.00;;;20.20
20058;BMP180;10189;49.546;7.906;2023-06-14T06:28:01;97894.00;;;20.00
20058;BMP180;10189;49.546;7.906;2023-06-14T06:30:27;97879.00;;;20.30
20058;BMP180;10189;49.546;7.906;2023-06-14T06:32:53;97885.00;;;20.50
20058;BMP180;10189;49.546;7.906;2023-06-14T06:35:18;97890.00;;;20.40
20058;BMP180;10189;49.546;7.906;2023-06-14T06:37:44;97899.00;;;20.50
20058;BMP180;10189;49.546;7.906;2023-06-14T06:40:10;97894.00;;;20.20
20058;BMP180;10189;49.546;7.906;2023-06-14T06:42:36;97900.00;;;20.40
20058;BMP180;10189;49.546;7.906;2023-06-14T06:45:05;97896.00;;;20.20
20058;BMP180;10189;49.546;7.906;2023-06-14T06:47:31;97902.00;;;20.40
20058;BMP180;10189;49.546;7.906;2023-06-14T06:49:57;97904.00;;;20.50
20058;BMP180;10189;49.546;7.906;2023-06-14T06:52:23;97913.00;;;20.40
20058;BMP180;10189;49.546;7.906;2023-06-14T06:54:49;97920.00;;;20.30
20058;BMP180;10189;49.546;7.906;2023-06-14T06:57:16;97917.00;;;20.20
20058;BMP180;10189;49.546;7.906;2023-06-14T06:59:42;97915.00;;;20.60
20058;BMP180;10189;49.546;7.906;2023-06-14T07:02:08;97920.00;;;20.70
20058;BMP180;10189;49.546;7.906;2023-06-14T07:04:33;97938.00;;;20.70
20058;BMP180;10189;49.546;7.906;2023-06-14T07:06:59;97920.00;;;20.70
20058;BMP180;10189;49.546;7.906;2023-06-14T07:09:26;97939.00;;;20.90
20058;BMP180;10189;49.546;7.906;2023-06-14T07:11:52;97932.00;;;21.10
20058;BMP180;10189;49.546;7.906;2023-06-14T07:14:18;97943.00;;;20.90
20058;BMP180;10189;49.546;7.906;2023-06-14T07:16:43;97928.00;;;20.70
20058;BMP180;10189;49.546;7.906;2023-06-14T07:19:10;97942.00;;;20.90
20058;BMP180;10189;49.546;7.906;2023-06-14T07:21:36;97945.00;;;21.00
20058;BMP180;10189;49.546;7.906;2023-06-14T07:24:08;97950.00;;;20.90
20058;BMP180;10189;49.546;7.906;2023-06-14T07:26:34;97949.00;;;20.80
20058;BMP180;10189;49.546;7.906;2023-06-14T07:29:01;97939.00;;;21.00
20058;BMP180;10189;49.546;7.906;2023-06-14T07:31:27;97952.00;;;20.80
20058;BMP180;10189;49.546;7.906;2023-06-14T07:33:53;97945.00;;;21.10
20058;BMP180;10189;49.546;7.906;2023-06-14T07:36:19;97947.00;;;21.50
20058;BMP180;10189;49.546;7.906;2023-06-14T07:38:46;97944.00;;;21.20
20058;BMP180;10189;49.546;7.906;2023-06-14T07:41:12;97960.00;;;21.40
20058;BMP180;10189;49.546;7.906;2023-06-14T07:43:38;97951.00;;;21.20
20058;BMP180;10189;49.546;7.906;2023-06-14T07:46:04;97951.00;;;21.60
20058;BMP180;10189;49.546;7.906;2023-06-14T07:48:30;97955.00;;;21.60
20058;BMP180;10189;49.546;7.906;2023-06-14T07:50:56;97952.00;;;21.80
20058;BMP180;10189;49.546;7.906;2023-06-14T07:53:22;97951.00;;;22.20
20058;BMP180;10189;49.546;7.906;2023-06-14T07:55:48;97949.00;;;22.20
20058;BMP180;10189;49.546;7.906;2023-06-14T07:58:15;97938.00;;;21.80
20058;BMP180;10189;49.546;7.906;2023-06-14T08:00:41;97957.00;;;21.80
20058;BMP180;10189;49.546;7.906;2023-06-14T08:03:07;97955.00;;;21.90
20058;BMP180;10189;49.546;7.906;2023-06-14T08:05:33;97959.00;;;22.10
20058;BMP180;10189;49.546;7.906;2023-06-14T08:07:59;97959.00;;;21.80
20058;BMP180;10189;49.546;7.906;2023-06-14T08:10:25;97945.00;;;21.90
20058;BMP180;10189;49.546;7.906;2023-06-14T08:12:51;97947.00;;;22.10
20058;BMP180;10189;49.546;7.906;2023-06-14T08:15:18;97954.00;;;22.50
20058;BMP180;10189;49.546;7.906;2023-06-14T08:17:44;97944.00;;;22.70
20058;BMP180;10189;49.546;7.906;2023-06-14T08:20:12;97945.00;;;22.70
20058;BMP180;10189;49.546;7.906;2023-06-14T08:22:39;97973.00;;;22.40
20058;BMP180;10189;49.546;7.906;2023-06-14T08:25:08;97959.00;;;22.00
20058;BMP180;10189;49.546;7.906;2023-06-14T08:27:35;97957.00;;;22.50
20058;BMP180;10189;49.546;7.906;2023-06-14T08:30:01;97950.00;;;22.30
20058;BMP180;10189;49.546;7.906;2023-06-14T08:32:28;97964.00;;;22.60
20058;BMP180;10189;49.546;7.906;2023-06-14T08:34:54;97949.00;;;22.50
20058;BMP180;10189;49.546;7.906;2023-06-14T08:37:20;97955.00;;;22.50
20058;BMP180;10189;49.546;7.906;2023-06-14T08:39:46;97950.00;;;22.70
20058;BMP180;10189;49.546;7.906;2023-06-14T08:42:14;97953.00;;;22.60
20058;BMP180;10189;49.546;7.906;2023-06-14T08:44:40;97950.00;;;23.00
20058;BMP180;10189;49.546;7.906;2023-06-14T08:47:07;97951.00;;;22.60
20058;BMP180;10189;49.546;7.906;2023-06-14T08:49:39;97949.00;;;23.00
20058;BMP180;10189;49.546;7.906;2023-06-14T08:52:09;97952.00;;;23.20
20058;BMP180;10189;49.546;7.906;2023-06-14T08:54:36;97944.00;;;23.00
20058;BMP180;10189;49.546;7.906;2023-06-14T08:57:11;97947.00;;;23.00
20058;BMP180;10189;49.546;7.906;2023-06-14T08:59:47;97945.00;;;23.20
20058;BMP180;10189;49.546;7.906;2023-06-14T09:02:15;97955.00;;;23.30
20058;BMP180;10189;49.546;7.906;2023-06-14T09:04:44;97959.00;;;23.20
20058;BMP180;10189;49.546;7.906;2023-06-14T09:07:11;97948.00;;;23.50
20058;BMP180;10189;49.546;7.906;2023-06-14T09:09:41;97954.00;;;23.60
20058;BMP180;10189;49.546;7.906;2023-06-14T09:12:11;97955.00;;;23.60
20058;BMP180;10189;49.546;7.906;2023-06-14T09:14:38;97951.00;;;23.70
20058;BMP180;10189;49.546;7.906;2023-06-14T09:17:06;97961.00;;;23.80
20058;BMP180;10189;49.546;7.906;2023-06-14T09:19:34;97955.00;;;23.40
20058;BMP180;10189;49.546;7.906;2023-06-14T09:22:03;97981.00;;;23.40
20058;BMP180;10189;49.546;7.906;2023-06-14T09:24:29;97960.00;;;23.10
20058;BMP180;10189;49.546;7.906;2023-06-14T09:26:55;97971.00;;;23.30
20058;BMP180;10189;49.546;7.906;2023-06-14T09:29:23;97971.00;;;23.00
20058;BMP180;10189;49.546;7.906;2023-06-14T09:31:49;97979.00;;;23.20
20058;BMP180;10189;49.546;7.906;2023-06-14T09:34:16;97981.00;;;23.20
20058;BMP180;10189;49.546;7.906;2023-06-14T09:36:45;97969.00;;;23.20
20058;BMP180;10189;49.546;7.906;2023-06-14T09:39:16;97973.00;;;23.40
20058;BMP180;10189;49.546;7.906;2023-06-14T09:41:42;97971.00;;;23.60
20058;BMP180;10189;49.546;7.906;2023-06-14T09:44:10;97973.00;;;23.60
20058;BMP180;10189;49.546;7.906;2023-06-14T09:46:39;97975.00;;;23.60
20058;BMP180;10189;49.546;7.906;2023-06-14T09:49:08;97985.00;;;23.50
20058;BMP180;10189;49.546;7.906;2023-06-14T09:51:36;97975.00;;;23.60
20058;BMP180;10189;49.546;7.906;2023-06-14T09:54:08;97979.00;;;23.40
20058;BMP180;10189;49.546;7.906;2023-06-14T09:56:46;97980.00;;;23.70
20058;BMP180;10189;49.546;7.906;2023-06-14T09:59:16;97974.00;;;23.40
20058;BMP180;10189;49.546;7.906;2023-06-14T10:01:45;97974.00;;;23.80
20058;BMP180;10189;49.546;7.906;2023-06-14T10:04:15;97964.00;;;23.70
20058;BMP180;10189;49.546;7.906;2023-06-14T10:06:45;97966.00;;;23.40
20058;BMP180;10189;49.546;7.906;2023-06-14T10:09:12;97985.00;;;23.40
20058;BMP180;10189;49.546;7.906;2023-06-14T10:11:38;97985.00;;;23.40
20058;BMP180;10189;49.546;7.906;2023-06-14T10:14:12;97989.00;;;23.30
20058;BMP180;10189;49.546;7.906;2023-06-14T10:16:52;97982.00;;;23.40
20058;BMP180;10189;49.546;7.906;2023-06-14T10:19:34;97980.00;;;23.90
20058;BMP180;10189;49.546;7.906;2023-06-14T10:22:11;97980.00;;;24.20
20058;BMP180;10189;49.546;7.906;2023-06-14T10:24:45;97979.00;;;24.00
20058;BMP180;10189;49.546;7.906;2023-06-14T10:27:15;97986.00;;;24.20
20058;BMP180;10189;49.546;7.906;2023-06-14T10:32:20;97973.00;;;24.00
20058;BMP180;10189;49.546;7.906;2023-06-14T10:34:53;97986.00;;;24.10
20058;BMP180;10189;49.546;7.906;2023-06-14T10:37:19;97986.00;;;23.60
20058;BMP180;10189;49.546;7.906;2023-06-14T10:39:47;97989.00;;;23.50
20058;BMP180;10189;49.546;7.906;2023-06-14T10:42:14;97980.00;;;23.70
20058;BMP180;10189;49.546;7.906;2023-06-14T10:45:06;97980.00;;;23.90
20058;BMP180;10189;49.546;7.906;2023-06-14T10:47:38;97980.00;;;23.80
20058;BMP180;10189;49.546;7.906;2023-06-14T10:50:10;97977.00;;;23.60
20058;BMP180;10189;49.546;7.906;2023-06-14T10:52:42;97987.00;;;23.60
20058;BMP180;10189;49.546;7.906;2023-06-14T10:55:17;97984.00;;;24.00
20058;BMP180;10189;49.546;7.906;2023-06-14T10:57:48;97971.00;;;24.40
20058;BMP180;10189;49.546;7.906;2023-06-14T11:00:19;97974.00;;;24.90
20058;BMP180;10189;49.546;7.906;2023-06-14T11:11:12;97991.00;;;24.00
20058;BMP180;10189;49.546;7.906;2023-06-14T11:13:42;97981.00;;;24.00
20058;BMP180;10189;49.546;7.906;2023-06-14T11:16:17;97989.00;;;23.90
20058;BMP180;10189;49.546;7.906;2023-06-14T11:18:44;97991.00;;;23.60
20058;BMP180;10189;49.546;7.906;2023-06-14T11:21:11;97978.00;;;23.80
20058;BMP180;10189;49.546;7.906;2023-06-14T11:23:41;97974.00;;;23.90
20058;BMP180;10189;49.546;7.906;2023-06-14T11:26:07;97984.00;;;24.20
20058;BMP180;10189;49.546;7.906;2023-06-14T11:28:40;97975.00;;;24.40
20058;BMP180;10189;49.546;7.906;2023-06-14T11:31:07;97980.00;;;24.30
20058;BMP180;10189;49.546;7.906;2023-06-14T11:33:33;97976.00;;;24.40
20058;BMP180;10189;49.546;7.906;2023-06-14T11:36:03;97983.00;;;24.30
20058;BMP180;10189;49.546;7.906;2023-06-14T11:38:35;97985.00;;;24.70
20058;BMP180;10189;49.546;7.906;2023-06-14T11:41:01;97981.00;;;24.50
20058;BMP180;10189;49.546;7.906;2023-06-14T11:43:26;97980.00;;;24.20
20058;BMP180;10189;49.546;7.906;2023-06-14T11:45:52;97969.00;;;24.80
20058;BMP180;10189;49.546;7.906;2023-06-14T11:48:18;97979.00;;;24.90
20058;BMP180;10189;49.546;7.906;2023-06-14T11:50:44;97974.00;;;24.60
20058;BMP180;10189;49.546;7.906;2023-06-14T11:53:16;97983.00;;;23.70
20058;BMP180;10189;49.546;7.906;2023-06-14T11:55:42;97967.00;;;23.90
20058;BMP180;10189;49.546;7.906;2023-06-14T11:58:10;97976.00;;;24.20
20058;BMP180;10189;49.546;7.906;2023-06-14T12:00:37;97970.00;;;24.40
20058;BMP180;10189;49.546;7.906;2023-06-14T12:03:03;97960.00;;;24.60
20058;BMP180;10189;49.546;7.906;2023-06-14T12:05:29;97972.00;;;24.40
20058;BMP180;10189;49.546;7.906;2023-06-14T12:08:03;97962.00;;;24.70
20058;BMP180;10189;49.546;7.906;2023-06-14T12:10:40;97962.00;;;24.90
20058;BMP180;10189;49.546;7.906;2023-06-14T12:13:09;97966.00;;;24.80
20058;BMP180;10189;49.546;7.906;2023-06-14T12:15:36;97974.00;;;24.90
20058;BMP180;10189;49.546;7.906;2023-06-14T12:18:06;97980.00;;;24.70
20058;BMP180;10189;49.546;7.906;2023-06-14T12:20:34;97981.00;;;24.60
20058;BMP180;10189;49.546;7.906;2023-06-14T12:23:04;97967.00;;;24.80
20058;BMP180;10189;49.546;7.906;2023-06-14T12:25:35;97968.00;;;25.00
20058;BMP180;10189;49.546;7.906;2023-06-14T12:28:07;97958.00;;;25.40
20058;BMP180;10189;49.546;7.906;2023-06-14T12:30:36;97975.00;;;24.90
20058;BMP180;10189;49.546;7.906;2023-06-14T12:33:05;97972.00;;;24.80
20058;BMP180;10189;49.546;7.906;2023-06-14T12:35:33;97965.00;;;25.10
20058;BMP180;10189;49.546;7.906;2023-06-14T12:37:59;97975.00;;;25.50
20058;BMP180;10189;49.546;7.906;2023-06-14T12:40:25;97979.00;;;24.90
20058;BMP180;10189;49.546;7.906;2023-06-14T12:42:52;97968.00;;;24.60
20058;BMP180;10189;49.546;7.906;2023-06-14T12:45:18;97980.00;;;24.90
20058;BMP180;10189;49.546;7.906;2023-06-14T12:47:43;97980.00;;;25.40
20058;BMP180;10189;49.546;7.906;2023-06-14T12:50:09;97985.00;;;24.90
20058;BMP180;10189;49.546;7.906;2023-06-14T12:52:35;97972.00;;;24.70
20058;BMP180;10189;49.546;7.906;2023-06-14T12:55:03;97973.00;;;25.20
20058;BMP180;10189;49.546;7.906;2023-06-14T12:57:30;97975.00;;;25.20
20058;BMP180;10189;49.546;7.906;2023-06-14T12:59:56;97966.00;;;25.10
20058;BMP180;10189;49.546;7.906;2023-06-14T13:02:22;97975.00;;;25.30
20058;BMP180;10189;49.546;7.906;2023-06-14T13:04:49;97978.00;;;25.30
20058;BMP180;10189;49.546;7.906;2023-06-14T13:07:15;97988.00;;;25.50
20058;BMP180;10189;49.546;7.906;2023-06-14T13:09:43;97972.00;;;25.10
20058;BMP180;10189;49.546;7.906;2023-06-14T13:12:10;97964.00;;;25.40
20058;BMP180;10189;49.546;7.906;2023-06-14T13:14:40;97970.00;;;25.20
20058;BMP180;10189;49.546;7.906;2023-06-14T13:17:09;97988.00;;;25.50
20058;BMP180;10189;49.546;7.906;2023-06-14T13:19:35;97970.00;;;25.00
20058;BMP180;10189;49.546;7.906;2023-06-14T13:22:02;97978.00;;;25.30
20058;BMP180;10189;49.546;7.906;2023-06-14T13:24:28;97975.00;;;25.40
20058;BMP180;10189;49.546;7.906;2023-06-14T13:26:56;97974.00;;;25.00
20058;BMP180;10189;49.546;7.906;2023-06-14T13:29:24;97977.00;;;25.30
20058;BMP180;10189;49.546;7.906;2023-06-14T13:31:50;97969.00;;;25.90
20058;BMP180;10189;49.546;7.906;2023-06-14T13:34:16;97966.00;;;25.60
20058;BMP180;10189;49.546;7.906;2023-06-14T13:36:42;97973.00;;;26.20
20058;BMP180;10189;49.546;7.906;2023-06-14T13:39:08;97971.00;;;26.30
20058;BMP180;10189;49.546;7.906;2023-06-14T13:41:33;97968.00;;;26.40
20058;BMP180;10189;49.546;7.906;2023-06-14T13:44:01;97967.00;;;26.40
20058;BMP180;10189;49.546;7.906;2023-06-14T13:46:30;97969.00;;;26.70
20058;BMP180;10189;49.546;7.906;2023-06-14T13:48:56;97964.00;;;26.10
20058;BMP180;10189;49.546;7.906;2023-06-14T13:51:23;97968.00;;;26.50
20058;BMP180;10189;49.546;7.906;2023-06-14T13:53:50;97979.00;;;26.10
20058;BMP180;10189;49.546;7.906;2023-06-14T13:56:17;97965.00;;;26.20
20058;BMP180;10189;49.546;7.906;2023-06-14T13:58:43;97976.00;;;26.40
20058;BMP180;10189;49.546;7.906;2023-06-14T14:01:09;97980.00;;;25.70
20058;BMP180;10189;49.546;7.906;2023-06-14T14:03:36;97993.00;;;25.50
20058;BMP180;10189;49.546;7.906;2023-06-14T14:06:03;97978.00;;;25.10
20058;BMP180;10189;49.546;7.906;2023-06-14T14:08:29;97976.00;;;25.50
20058;BMP180;10189;49.546;7.906;2023-06-14T14:10:55;97971.00;;;25.90
20058;BMP180;10189;49.546;7.906;2023-06-14T14:13:22;97971.00;;;26.30
20058;BMP180;10189;49.546;7.906;2023-06-14T14:15:48;97966.00;;;26.60
20058;BMP180;10189;49.546;7.906;2023-06-14T14:18:14;97972.00;;;26.00
20058;BMP180;10189;49.546;7.906;2023-06-14T14:20:41;97981.00;;;25.50
20058;BMP180;10189;49.546;7.906;2023-06-14T14:23:06;97978.00;;;25.00
20058;BMP180;10189;49.546;7.906;2023-06-14T14:25:32;97971.00;;;25.10